sensor_id;sensor_type;location;lat;lon;timestamp;P1;durP1;ratioP1;P2;durP2;ratioP2
20705;SDS011;10514;49.468;11.044;2022-12-18T00:00:33;52.57;;;27.63;;
20705;SDS011;10514;49.468;11.044;2022-12-18T00:02:59;54.20;;;25.73;;
20705;SDS011;10514;49.468;11.044;2022-12-18T00:05:25;50.90;;;25.07;;
20705;SDS011;10514;49.468;11.044;2022-12-18T00:07:51;61.67;;;25.43;;
20705;SDS011;10514;49.468;11.044;2022-12-18T00:10:17;48.83;;;25.07;;
20705;SDS011;10514;49.468;11.044;2022-12-18T00:12:43;46.17;;;23.43;;
20705;SDS011;10514;49.468;11.044;2022-12-18T00:15:09;51.47;;;23.60;;
20705;SDS011;10514;49.468;11.044;2022-12-18T00:17:35;44.30;;;21.63;;
20705;SDS011;10514;49.468;11.044;2022-12-18T00:20:01;63.40;;;26.37;;
20705;SDS011;10514;49.468;11.044;2022-12-18T00:22:27;45.80;;;23.50;;
20705;SDS011;10514;49.468;11.044;2022-12-18T00:24:53;50.77;;;22.73;;
20705;SDS011;10514;49.468;11.044;2022-12-18T00:27:19;53.80;;;24.97;;
20705;SDS011;10514;49.468;11.044;2022-12-18T00:29:45;50.53;;;22.70;;
20705;SDS011;10514;49.468;11.044;2022-12-18T00:32:11;51.20;;;24.83;;
20705;SDS011;10514;49.468;11.044;2022-12-18T00:34:36;49.20;;;22.57;;
20705;SDS011;10514;49.468;11.044;2022-12-18T00:37:02;45.67;;;23.03;;
20705;SDS011;10514;49.468;11.044;2022-12-18T00:39:28;40.70;;;18.37;;
20705;SDS011;10514;49.468;11.044;2022-12-18T00:41:54;40.63;;;21.60;;
20705;SDS011;10514;49.468;11.044;2022-12-18T00:44:39;39.57;;;19.73;;
20705;SDS011;10514;49.468;11.044;2022-12-18T00:47:04;42.63;;;19.03;;
20705;SDS011;10514;49.468;11.044;2022-12-18T00:49:30;39.23;;;18.43;;
20705;SDS011;10514;49.468;11.044;2022-12-18T00:51:56;42.50;;;19.97;;
20705;SDS011;10514;49.468;11.044;2022-12-18T00:54:22;43.03;;;19.10;;
20705;SDS011;10514;49.468;11.044;2022-12-18T00:56:48;35.70;;;18.53;;
20705;SDS011;10514;49.468;11.044;2022-12-18T00:59:14;33.17;;;17.40;;
20705;SDS011;10514;49.468;11.044;2022-12-18T01:01:40;31.03;;;17.57;;
20705;SDS011;10514;49.468;11.044;2022-12-18T01:04:07;36.73;;;20.17;;
20705;SDS011;10514;49.468;11.044;2022-12-18T01:06:33;36.53;;;17.17;;
20705;SDS011;10514;49.468;11.044;2022-12-18T01:08:59;44.70;;;21.90;;
20705;SDS011;10514;49.468;11.044;2022-12-18T01:11:25;40.50;;;18.97;;
20705;SDS011;10514;49.468;11.044;2022-12-18T01:13:51;33.03;;;17.23;;
20705;SDS011;10514;49.468;11.044;2022-12-18T01:16:17;31.87;;;16.83;;
20705;SDS011;10514;49.468;11.044;2022-12-18T01:18:44;29.83;;;16.97;;
20705;SDS011;10514;49.468;11.044;2022-12-18T01:21:10;37.27;;;19.33;;
20705;SDS011;10514;49.468;11.044;2022-12-18T01:23:37;32.30;;;18.20;;
20705;SDS011;10514;49.468;11.044;2022-12-18T01:26:04;39.17;;;20.10;;
20705;SDS011;10514;49.468;11.044;2022-12-18T01:28:30;35.30;;;18.40;;
20705;SDS011;10514;49.468;11.044;2022-12-18T01:30:55;38.70;;;17.50;;
20705;SDS011;10514;49.468;11.044;2022-12-18T01:33:21;40.20;;;20.17;;
20705;SDS011;10514;49.468;11.044;2022-12-18T01:35:47;41.03;;;18.20;;
20705;SDS011;10514;49.468;11.044;2022-12-18T01:38:13;36.17;;;18.23;;
20705;SDS011;10514;49.468;11.044;2022-12-18T01:40:39;41.97;;;19.90;;
20705;SDS011;10514;49.468;11.044;2022-12-18T01:43:08;28.20;;;17.87;;
20705;SDS011;10514;49.468;11.044;2022-12-18T01:45:34;38.27;;;18.10;;
20705;SDS011;10514;49.468;11.044;2022-12-18T01:48:02;38.93;;;21.33;;
20705;SDS011;10514;49.468;11.044;2022-12-18T01:53:05;46.70;;;22.10;;
20705;SDS011;10514;49.468;11.044;2022-12-18T01:55:36;34.77;;;17.87;;
20705;SDS011;10514;49.468;11.044;2022-12-18T01:58:03;37.83;;;18.00;;
20705;SDS011;10514;49.468;11.044;2022-12-18T02:00:30;34.30;;;20.17;;
20705;SDS011;10514;49.468;11.044;2022-12-18T02:02:56;44.47;;;21.50;;
20705;SDS011;10514;49.468;11.044;2022-12-18T02:08:04;30.17;;;17.37;;
20705;SDS011;10514;49.468;11.044;2022-12-18T02:10:48;43.97;;;20.40;;
20705;SDS011;10514;49.468;11.044;2022-12-18T02:18:45;32.53;;;16.47;;
20705;SDS011;10514;49.468;11.044;2022-12-18T02:21:20;36.80;;;18.00;;
20705;SDS011;10514;49.468;11.044;2022-12-18T02:26:16;34.27;;;17.77;;
20705;SDS011;10514;49.468;11.044;2022-12-18T02:28:49;34.80;;;15.80;;
20705;SDS011;10514;49.468;11.044;2022-12-18T02:31:18;21.50;;;11.50;;
20705;SDS011;10514;49.468;11.044;2022-12-18T02:33:45;33.13;;;13.17;;
20705;SDS011;10514;49.468;11.044;2022-12-18T02:36:12;30.37;;;12.00;;
20705;SDS011;10514;49.468;11.044;2022-12-18T02:38:39;38.30;;;15.07;;
20705;SDS011;10514;49.468;11.044;2022-12-18T02:41:06;40.13;;;16.50;;
20705;SDS011;10514;49.468;11.044;2022-12-18T02:43:32;24.17;;;12.47;;
20705;SDS011;10514;49.468;11.044;2022-12-18T02:45:59;33.50;;;16.07;;
20705;SDS011;10514;49.468;11.044;2022-12-18T02:48:27;28.57;;;13.30;;
20705;SDS011;10514;49.468;11.044;2022-12-18T02:51:08;29.00;;;13.70;;
20705;SDS011;10514;49.468;11.044;2022-12-18T02:53:39;27.97;;;12.67;;
20705;SDS011;10514;49.468;11.044;2022-12-18T02:56:13;38.57;;;15.40;;
20705;SDS011;10514;49.468;11.044;2022-12-18T02:58:49;28.70;;;13.67;;
20705;SDS011;10514;49.468;11.044;2022-12-18T03:01:38;27.70;;;13.90;;
20705;SDS011;10514;49.468;11.044;2022-12-18T03:04:37;36.43;;;15.53;;
20705;SDS011;10514;49.468;11.044;2022-12-18T03:07:06;36.57;;;15.27;;
20705;SDS011;10514;49.468;11.044;2022-12-18T03:09:35;28.17;;;13.43;;
20705;SDS011;10514;49.468;11.044;2022-12-18T03:12:16;37.97;;;15.67;;
20705;SDS011;10514;49.468;11.044;2022-12-18T03:14:51;39.43;;;17.03;;
20705;SDS011;10514;49.468;11.044;2022-12-18T03:17:19;43.13;;;16.13;;
20705;SDS011;10514;49.468;11.044;2022-12-18T03:19:47;38.43;;;13.47;;
20705;SDS011;10514;49.468;11.044;2022-12-18T03:22:14;40.53;;;14.30;;
20705;SDS011;10514;49.468;11.044;2022-12-18T03:24:41;36.50;;;15.40;;
20705;SDS011;10514;49.468;11.044;2022-12-18T03:27:09;35.00;;;17.43;;
20705;SDS011;10514;49.468;11.044;2022-12-18T03:29:40;44.97;;;15.50;;
20705;SDS011;10514;49.468;11.044;2022-12-18T03:32:16;38.67;;;15.90;;
20705;SDS011;10514;49.468;11.044;2022-12-18T03:34:49;35.43;;;13.40;;
20705;SDS011;10514;49.468;11.044;2022-12-18T03:37:18;32.67;;;15.93;;
20705;SDS011;10514;49.468;11.044;2022-12-18T03:39:44;37.77;;;14.87;;
20705;SDS011;10514;49.468;11.044;2022-12-18T03:42:20;29.33;;;13.83;;
20705;SDS011;10514;49.468;11.044;2022-12-18T03:45:02;34.43;;;16.63;;
20705;SDS011;10514;49.468;11.044;2022-12-18T03:55:29;32.30;;;14.97;;
20705;SDS011;10514;49.468;11.044;2022-12-18T03:57:56;35.60;;;16.20;;
20705;SDS011;10514;49.468;11.044;2022-12-18T04:00:23;31.00;;;13.53;;
20705;SDS011;10514;49.468;11.044;2022-12-18T04:02:50;41.47;;;15.43;;
20705;SDS011;10514;49.468;11.044;2022-12-18T04:05:17;37.27;;;16.07;;
20705;SDS011;10514;49.468;11.044;2022-12-18T04:07:45;33.57;;;14.93;;
20705;SDS011;10514;49.468;11.044;2022-12-18T04:10:12;27.57;;;14.23;;
20705;SDS011;10514;49.468;11.044;2022-12-18T04:12:39;37.70;;;14.47;;
20705;SDS011;10514;49.468;11.044;2022-12-18T04:15:05;32.50;;;14.67;;
20705;SDS011;10514;49.468;11.044;2022-12-18T04:17:31;31.27;;;13.30;;
20705;SDS011;10514;49.468;11.044;2022-12-18T04:19:57;39.13;;;17.10;;
20705;SDS011;10514;49.468;11.044;2022-12-18T04:22:23;35.50;;;14.73;;
20705;SDS011;10514;49.468;11.044;2022-12-18T04:24:49;37.43;;;16.53;;
20705;SDS011;10514;49.468;11.044;2022-12-18T04:27:15;37.27;;;14.20;;
20705;SDS011;10514;49.468;11.044;2022-12-18T04:29:41;34.73;;;13.73;;
20705;SDS011;10514;49.468;11.044;2022-12-18T04:32:07;38.00;;;13.27;;
20705;SDS011;10514;49.468;11.044;2022-12-18T04:34:32;37.23;;;14.70;;
20705;SDS011;10514;49.468;11.044;2022-12-18T04:36:58;26.93;;;12.67;;
20705;SDS011;10514;49.468;11.044;2022-12-18T04:39:24;36.23;;;15.57;;
20705;SDS011;10514;49.468;11.044;2022-12-18T04:41:50;30.53;;;13.37;;
20705;SDS011;10514;49.468;11.044;2022-12-18T04:44:16;32.23;;;13.67;;
20705;SDS011;10514;49.468;11.044;2022-12-18T04:46:42;38.30;;;15.50;;
20705;SDS011;10514;49.468;11.044;2022-12-18T04:49:08;31.63;;;15.10;;
20705;SDS011;10514;49.468;11.044;2022-12-18T04:51:35;32.10;;;14.17;;
20705;SDS011;10514;49.468;11.044;2022-12-18T04:54:01;33.73;;;15.27;;
20705;SDS011;10514;49.468;11.044;2022-12-18T04:56:27;29.77;;;14.30;;
20705;SDS011;10514;49.468;11.044;2022-12-18T04:58:53;31.57;;;13.97;;
20705;SDS011;10514;49.468;11.044;2022-12-18T05:01:19;31.87;;;12.90;;
20705;SDS011;10514;49.468;11.044;2022-12-18T05:03:45;37.03;;;16.30;;
20705;SDS011;10514;49.468;11.044;2022-12-18T05:06:11;36.07;;;12.93;;
20705;SDS011;10514;49.468;11.044;2022-12-18T05:08:37;33.53;;;13.37;;
20705;SDS011;10514;49.468;11.044;2022-12-18T05:13:29;35.40;;;15.43;;
20705;SDS011;10514;49.468;11.044;2022-12-18T05:15:55;31.13;;;13.60;;
20705;SDS011;10514;49.468;11.044;2022-12-18T05:18:21;36.33;;;13.97;;
20705;SDS011;10514;49.468;11.044;2022-12-18T05:20:47;29.47;;;12.60;;
20705;SDS011;10514;49.468;11.044;2022-12-18T05:23:13;29.13;;;13.63;;
20705;SDS011;10514;49.468;11.044;2022-12-18T05:25:39;30.67;;;13.93;;
20705;SDS011;10514;49.468;11.044;2022-12-18T05:28:05;33.33;;;13.00;;
20705;SDS011;10514;49.468;11.044;2022-12-18T05:30:30;33.40;;;15.33;;
20705;SDS011;10514;49.468;11.044;2022-12-18T05:32:56;33.37;;;14.47;;
20705;SDS011;10514;49.468;11.044;2022-12-18T05:35:22;28.87;;;13.53;;
20705;SDS011;10514;49.468;11.044;2022-12-18T05:37:48;38.03;;;12.87;;
20705;SDS011;10514;49.468;11.044;2022-12-18T05:40:14;34.53;;;13.57;;
20705;SDS011;10514;49.468;11.044;2022-12-18T05:42:40;33.83;;;14.87;;
20705;SDS011;10514;49.468;11.044;2022-12-18T05:45:06;31.93;;;12.70;;
20705;SDS011;10514;49.468;11.044;2022-12-18T05:47:32;28.67;;;13.03;;
20705;SDS011;10514;49.468;11.044;2022-12-18T05:49:58;31.13;;;12.23;;
20705;SDS011;10514;49.468;11.044;2022-12-18T05:52:24;25.83;;;12.33;;
20705;SDS011;10514;49.468;11.044;2022-12-18T05:54:50;28.97;;;12.67;;
20705;SDS011;10514;49.468;11.044;2022-12-18T05:57:16;34.17;;;13.97;;
20705;SDS011;10514;49.468;11.044;2022-12-18T05:59:41;29.23;;;13.13;;
20705;SDS011;10514;49.468;11.044;2022-12-18T06:02:07;28.97;;;14.33;;
20705;SDS011;10514;49.468;11.044;2022-12-18T06:04:33;38.67;;;14.10;;
20705;SDS011;10514;49.468;11.044;2022-12-18T06:06:58;28.53;;;12.17;;
20705;SDS011;10514;49.468;11.044;2022-12-18T06:09:24;35.40;;;13.03;;
20705;SDS011;10514;49.468;11.044;2022-12-18T06:11:51;29.80;;;11.40;;
20705;SDS011;10514;49.468;11.044;2022-12-18T06:14:17;32.87;;;13.70;;
20705;SDS011;10514;49.468;11.044;2022-12-18T06:16:43;35.37;;;13.73;;
20705;SDS011;10514;49.468;11.044;2022-12-18T06:19:12;32.63;;;14.13;;
20705;SDS011;10514;49.468;11.044;2022-12-18T06:21:39;20.43;;;10.87;;
20705;SDS011;10514;49.468;11.044;2022-12-18T06:24:04;32.67;;;14.20;;
20705;SDS011;10514;49.468;11.044;2022-12-18T06:26:30;35.73;;;18.33;;
20705;SDS011;10514;49.468;11.044;2022-12-18T06:28:56;33.60;;;16.00;;
20705;SDS011;10514;49.468;11.044;2022-12-18T06:31:22;36.83;;;16.37;;
20705;SDS011;10514;49.468;11.044;2022-12-18T06:33:48;30.67;;;13.40;;
20705;SDS011;10514;49.468;11.044;2022-12-18T06:36:14;29.00;;;13.00;;
20705;SDS011;10514;49.468;11.044;2022-12-18T06:38:41;26.50;;;10.37;;
20705;SDS011;10514;49.468;11.044;2022-12-18T06:41:11;29.07;;;11.90;;
20705;SDS011;10514;49.468;11.044;2022-12-18T06:43:38;38.20;;;16.63;;
20705;SDS011;10514;49.468;11.044;2022-12-18T06:46:04;34.50;;;16.47;;
20705;SDS011;10514;49.468;11.044;2022-12-18T06:48:30;26.37;;;11.80;;
20705;SDS011;10514;49.468;11.044;2022-12-18T06:50:57;30.80;;;13.10;;
20705;SDS011;10514;49.468;11.044;2022-12-18T06:53:23;28.03;;;12.90;;
20705;SDS011;10514;49.468;11.044;2022-12-18T06:55:49;27.43;;;11.50;;
20705;SDS011;10514;49.468;11.044;2022-12-18T06:58:15;30.27;;;13.60;;
20705;SDS011;10514;49.468;11.044;2022-12-18T07:00:41;30.07;;;12.43;;
20705;SDS011;10514;49.468;11.044;2022-12-18T07:03:07;28.83;;;12.03;;
20705;SDS011;10514;49.468;11.044;2022-12-18T07:05:33;30.57;;;12.00;;
20705;SDS011;10514;49.468;11.044;2022-12-18T07:07:59;32.67;;;13.87;;
20705;SDS011;10514;49.468;11.044;2022-12-18T07:10:25;32.87;;;12.77;;
20705;SDS011;10514;49.468;11.044;2022-12-18T07:12:51;31.60;;;13.60;;
20705;SDS011;10514;49.468;11.044;2022-12-18T07:15:17;30.07;;;14.17;;
20705;SDS011;10514;49.468;11.044;2022-12-18T07:17:43;28.73;;;13.63;;
20705;SDS011;10514;49.468;11.044;2022-12-18T07:20:09;28.37;;;12.80;;
20705;SDS011;10514;49.468;11.044;2022-12-18T07:22:35;30.50;;;11.97;;
20705;SDS011;10514;49.468;11.044;2022-12-18T07:25:01;32.33;;;12.10;;
20705;SDS011;10514;49.468;11.044;2022-12-18T07:27:27;28.43;;;13.73;;
20705;SDS011;10514;49.468;11.044;2022-12-18T07:29:53;35.03;;;14.63;;
20705;SDS011;10514;49.468;11.044;2022-12-18T07:32:19;29.33;;;12.67;;
20705;SDS011;10514;49.468;11.044;2022-12-18T07:34:45;31.73;;;12.77;;
20705;SDS011;10514;49.468;11.044;2022-12-18T07:37:11;32.30;;;13.67;;
20705;SDS011;10514;49.468;11.044;2022-12-18T07:39:37;31.77;;;13.07;;
20705;SDS011;10514;49.468;11.044;2022-12-18T07:42:03;30.73;;;12.97;;
20705;SDS011;10514;49.468;11.044;2022-12-18T07:44:47;30.47;;;13.43;;
20705;SDS011;10514;49.468;11.044;2022-12-18T07:47:13;28.47;;;13.20;;
20705;SDS011;10514;49.468;11.044;2022-12-18T07:49:39;30.57;;;13.97;;
20705;SDS011;10514;49.468;11.044;2022-12-18T07:52:05;44.13;;;13.93;;
20705;SDS011;10514;49.468;11.044;2022-12-18T07:54:30;24.07;;;11.23;;
20705;SDS011;10514;49.468;11.044;2022-12-18T07:56:56;31.60;;;12.27;;
20705;SDS011;10514;49.468;11.044;2022-12-18T07:59:22;28.87;;;13.17;;
20705;SDS011;10514;49.468;11.044;2022-12-18T08:01:48;34.03;;;13.33;;
20705;SDS011;10514;49.468;11.044;2022-12-18T08:04:14;34.17;;;12.90;;
20705;SDS011;10514;49.468;11.044;2022-12-18T08:06:40;37.60;;;14.00;;
20705;SDS011;10514;49.468;11.044;2022-12-18T08:09:06;36.50;;;14.10;;
20705;SDS011;10514;49.468;11.044;2022-12-18T08:11:33;35.73;;;14.80;;
20705;SDS011;10514;49.468;11.044;2022-12-18T08:13:59;37.73;;;14.80;;
20705;SDS011;10514;49.468;11.044;2022-12-18T08:16:25;37.23;;;13.33;;
20705;SDS011;10514;49.468;11.044;2022-12-18T08:18:51;32.27;;;13.70;;
20705;SDS011;10514;49.468;11.044;2022-12-18T08:21:19;33.50;;;14.33;;
20705;SDS011;10514;49.468;11.044;2022-12-18T08:23:47;34.73;;;13.80;;
20705;SDS011;10514;49.468;11.044;2022-12-18T08:26:13;31.83;;;14.17;;
20705;SDS011;10514;49.468;11.044;2022-12-18T08:28:40;37.20;;;13.83;;
20705;SDS011;10514;49.468;11.044;2022-12-18T08:31:06;29.77;;;14.77;;
20705;SDS011;10514;49.468;11.044;2022-12-18T08:33:32;38.33;;;15.17;;
20705;SDS011;10514;49.468;11.044;2022-12-18T08:35:59;37.13;;;13.27;;
20705;SDS011;10514;49.468;11.044;2022-12-18T08:38:25;38.43;;;14.70;;
20705;SDS011;10514;49.468;11.044;2022-12-18T08:40:59;26.33;;;12.27;;
20705;SDS011;10514;49.468;11.044;2022-12-18T08:43:25;36.23;;;14.83;;
20705;SDS011;10514;49.468;11.044;2022-12-18T08:46:10;35.80;;;14.33;;
20705;SDS011;10514;49.468;11.044;2022-12-18T08:48:36;32.27;;;14.47;;
20705;SDS011;10514;49.468;11.044;2022-12-18T08:51:01;30.10;;;13.13;;
20705;SDS011;10514;49.468;11.044;2022-12-18T08:53:27;28.57;;;12.87;;
20705;SDS011;10514;49.468;11.044;2022-12-18T08:55:53;29.33;;;11.97;;
20705;SDS011;10514;49.468;11.044;2022-12-18T08:58:19;28.10;;;11.40;;
20705;SDS011;10514;49.468;11.044;2022-12-18T09:00:45;34.30;;;13.73;;
20705;SDS011;10514;49.468;11.044;2022-12-18T09:03:15;29.70;;;14.17;;
20705;SDS011;10514;49.468;11.044;2022-12-18T09:05:41;28.70;;;13.73;;
20705;SDS011;10514;49.468;11.044;2022-12-18T09:08:07;31.73;;;12.07;;
20705;SDS011;10514;49.468;11.044;2022-12-18T09:10:33;34.83;;;14.13;;
20705;SDS011;10514;49.468;11.044;2022-12-18T09:12:59;24.00;;;11.20;;
20705;SDS011;10514;49.468;11.044;2022-12-18T09:15:25;26.90;;;12.20;;
20705;SDS011;10514;49.468;11.044;2022-12-18T09:17:51;27.40;;;11.40;;
20705;SDS011;10514;49.468;11.044;2022-12-18T09:20:18;30.20;;;12.73;;
20705;SDS011;10514;49.468;11.044;2022-12-18T09:22:44;35.63;;;14.97;;
20705;SDS011;10514;49.468;11.044;2022-12-18T09:25:10;30.97;;;13.67;;
20705;SDS011;10514;49.468;11.044;2022-12-18T09:27:36;33.17;;;12.77;;
20705;SDS011;10514;49.468;11.044;2022-12-18T09:30:02;27.07;;;12.77;;
20705;SDS011;10514;49.468;11.044;2022-12-18T09:32:28;29.83;;;12.40;;
20705;SDS011;10514;49.468;11.044;2022-12-18T09:34:54;25.53;;;12.03;;
20705;SDS011;10514;49.468;11.044;2022-12-18T09:37:20;30.00;;;13.73;;
20705;SDS011;10514;49.468;11.044;2022-12-18T09:39:46;31.23;;;12.30;;
20705;SDS011;10514;49.468;11.044;2022-12-18T09:42:22;30.13;;;12.77;;
20705;SDS011;10514;49.468;11.044;2022-12-18T09:44:49;30.07;;;12.23;;
20705;SDS011;10514;49.468;11.044;2022-12-18T09:49:45;23.60;;;12.17;;
20705;SDS011;10514;49.468;11.044;2022-12-18T09:52:21;29.03;;;11.87;;
20705;SDS011;10514;49.468;11.044;2022-12-18T09:57:31;29.43;;;13.03;;
20705;SDS011;10514;49.468;11.044;2022-12-18T10:00:02;26.27;;;10.83;;
20705;SDS011;10514;49.468;11.044;2022-12-18T10:02:30;27.53;;;11.10;;
20705;SDS011;10514;49.468;11.044;2022-12-18T10:05:07;27.57;;;12.20;;
20705;SDS011;10514;49.468;11.044;2022-12-18T10:07:48;22.77;;;10.53;;
20705;SDS011;10514;49.468;11.044;2022-12-18T10:15:13;24.77;;;11.27;;
20705;SDS011;10514;49.468;11.044;2022-12-18T10:20:49;26.43;;;12.10;;
20705;SDS011;10514;49.468;11.044;2022-12-18T10:23:38;28.70;;;12.30;;
20705;SDS011;10514;49.468;11.044;2022-12-18T10:26:07;28.70;;;13.17;;
20705;SDS011;10514;49.468;11.044;2022-12-18T10:28:33;23.53;;;11.77;;
20705;SDS011;10514;49.468;11.044;2022-12-18T10:31:01;27.13;;;11.90;;
20705;SDS011;10514;49.468;11.044;2022-12-18T10:33:30;35.50;;;13.40;;
20705;SDS011;10514;49.468;11.044;2022-12-18T10:35:57;25.80;;;11.10;;
20705;SDS011;10514;49.468;11.044;2022-12-18T10:38:24;29.50;;;11.83;;
20705;SDS011;10514;49.468;11.044;2022-12-18T10:40:52;25.83;;;11.43;;
20705;SDS011;10514;49.468;11.044;2022-12-18T10:45:57;23.07;;;10.67;;
20705;SDS011;10514;49.468;11.044;2022-12-18T10:48:30;23.40;;;10.00;;
20705;SDS011;10514;49.468;11.044;2022-12-18T10:50:56;40.53;;;17.20;;
20705;SDS011;10514;49.468;11.044;2022-12-18T10:53:26;25.37;;;12.27;;
20705;SDS011;10514;49.468;11.044;2022-12-18T10:55:53;24.40;;;11.00;;
20705;SDS011;10514;49.468;11.044;2022-12-18T10:58:24;30.23;;;12.30;;
20705;SDS011;10514;49.468;11.044;2022-12-18T11:06:02;25.10;;;10.77;;
20705;SDS011;10514;49.468;11.044;2022-12-18T11:08:29;26.57;;;11.53;;
20705;SDS011;10514;49.468;11.044;2022-12-18T11:10:55;26.90;;;13.23;;
20705;SDS011;10514;49.468;11.044;2022-12-18T11:13:22;30.33;;;14.47;;
20705;SDS011;10514;49.468;11.044;2022-12-18T11:15:52;28.37;;;11.97;;
20705;SDS011;10514;49.468;11.044;2022-12-18T11:18:39;30.90;;;12.13;;
20705;SDS011;10514;49.468;11.044;2022-12-18T11:21:08;27.13;;;12.40;;
20705;SDS011;10514;49.468;11.044;2022-12-18T11:23:34;29.10;;;11.07;;
20705;SDS011;10514;49.468;11.044;2022-12-18T11:26:04;27.17;;;11.87;;
20705;SDS011;10514;49.468;11.044;2022-12-18T11:28:35;26.90;;;12.60;;
20705;SDS011;10514;49.468;11.044;2022-12-18T11:33:44;27.93;;;11.90;;
20705;SDS011;10514;49.468;11.044;2022-12-18T11:36:11;26.10;;;10.97;;
20705;SDS011;10514;49.468;11.044;2022-12-18T11:38:41;27.43;;;11.47;;
20705;SDS011;10514;49.468;11.044;2022-12-18T11:44:25;26.03;;;11.87;;
20705;SDS011;10514;49.468;11.044;2022-12-18T11:46:55;19.63;;;9.37;;
20705;SDS011;10514;49.468;11.044;2022-12-18T11:49:24;21.57;;;10.10;;
20705;SDS011;10514;49.468;11.044;2022-12-18T11:51:56;29.27;;;11.63;;
20705;SDS011;10514;49.468;11.044;2022-12-18T11:54:23;23.43;;;10.83;;
20705;SDS011;10514;49.468;11.044;2022-12-18T11:57:10;24.90;;;11.00;;
20705;SDS011;10514;49.468;11.044;2022-12-18T12:07:35;26.27;;;11.27;;
20705;SDS011;10514;49.468;11.044;2022-12-18T12:10:11;25.53;;;10.50;;
20705;SDS011;10514;49.468;11.044;2022-12-18T12:12:56;28.90;;;10.57;;
20705;SDS011;10514;49.468;11.044;2022-12-18T12:20:42;32.43;;;14.60;;
20705;SDS011;10514;49.468;11.044;2022-12-18T12:26:24;23.80;;;11.50;;
20705;SDS011;10514;49.468;11.044;2022-12-18T12:34:18;27.40;;;10.40;;
20705;SDS011;10514;49.468;11.044;2022-12-18T12:36:52;19.10;;;9.83;;
20705;SDS011;10514;49.468;11.044;2022-12-18T12:39:26;29.47;;;11.93;;
20705;SDS011;10514;49.468;11.044;2022-12-18T12:41:54;22.90;;;11.27;;
20705;SDS011;10514;49.468;11.044;2022-12-18T12:44:44;20.97;;;10.50;;
20705;SDS011;10514;49.468;11.044;2022-12-18T12:47:16;24.93;;;11.27;;
20705;SDS011;10514;49.468;11.044;2022-12-18T12:49:46;21.87;;;11.03;;
20705;SDS011;10514;49.468;11.044;2022-12-18T12:52:17;26.77;;;10.83;;
20705;SDS011;10514;49.468;11.044;2022-12-18T12:54:47;32.67;;;14.40;;
20705;SDS011;10514;49.468;11.044;2022-12-18T12:57:38;25.43;;;11.70;;
20705;SDS011;10514;49.468;11.044;2022-12-18T13:05:16;26.23;;;12.70;;
20705;SDS011;10514;49.468;11.044;2022-12-18T13:10:39;27.73;;;11.90;;
20705;SDS011;10514;49.468;11.044;2022-12-18T13:13:10;20.93;;;9.90;;
20705;SDS011;10514;49.468;11.044;2022-12-18T13:20:36;22.57;;;10.20;;
20705;SDS011;10514;49.468;11.044;2022-12-18T13:23:19;26.37;;;10.83;;
20705;SDS011;10514;49.468;11.044;2022-12-18T13:25:45;26.73;;;12.07;;
20705;SDS011;10514;49.468;11.044;2022-12-18T13:30:56;24.77;;;10.53;;
20705;SDS011;10514;49.468;11.044;2022-12-18T13:35:55;24.13;;;11.97;;
20705;SDS011;10514;49.468;11.044;2022-12-18T13:41:39;25.77;;;12.03;;
20705;SDS011;10514;49.468;11.044;2022-12-18T13:43:55;21.87;;;10.73;;
20705;SDS011;10514;49.468;11.044;2022-12-18T13:46:26;27.50;;;12.50;;
20705;SDS011;10514;49.468;11.044;2022-12-18T13:51:31;26.30;;;10.50;;
20705;SDS011;10514;49.468;11.044;2022-12-18T13:54:02;28.57;;;11.23;;
20705;SDS011;10514;49.468;11.044;2022-12-18T13:56:32;30.60;;;11.47;;
20705;SDS011;10514;49.468;11.044;2022-12-18T14:01:41;24.00;;;11.50;;
20705;SDS011;10514;49.468;11.044;2022-12-18T14:06:45;26.87;;;12.13;;
20705;SDS011;10514;49.468;11.044;2022-12-18T14:09:15;19.37;;;9.57;;
20705;SDS011;10514;49.468;11.044;2022-12-18T14:11:47;26.87;;;11.77;;
20705;SDS011;10514;49.468;11.044;2022-12-18T14:14:14;21.60;;;11.67;;
20705;SDS011;10514;49.468;11.044;2022-12-18T14:16:40;25.37;;;12.27;;
20705;SDS011;10514;49.468;11.044;2022-12-18T14:19:08;24.53;;;11.17;;
20705;SDS011;10514;49.468;11.044;2022-12-18T14:21:35;25.10;;;11.87;;
20705;SDS011;10514;49.468;11.044;2022-12-18T14:26:34;23.67;;;11.37;;
20705;SDS011;10514;49.468;11.044;2022-12-18T14:29:14;23.27;;;11.93;;
20705;SDS011;10514;49.468;11.044;2022-12-18T14:31:44;24.40;;;10.87;;
20705;SDS011;10514;49.468;11.044;2022-12-18T14:34:16;29.67;;;13.57;;
20705;SDS011;10514;49.468;11.044;2022-12-18T14:36:44;25.37;;;12.17;;
20705;SDS011;10514;49.468;11.044;2022-12-18T14:39:17;24.13;;;12.00;;
20705;SDS011;10514;49.468;11.044;2022-12-18T14:41:43;23.97;;;12.23;;
20705;SDS011;10514;49.468;11.044;2022-12-18T14:44:10;27.03;;;11.17;;
20705;SDS011;10514;49.468;11.044;2022-12-18T14:46:44;25.03;;;11.40;;
20705;SDS011;10514;49.468;11.044;2022-12-18T14:49:26;40.90;;;15.77;;
20705;SDS011;10514;49.468;11.044;2022-12-18T14:51:56;28.07;;;14.57;;
20705;SDS011;10514;49.468;11.044;2022-12-18T14:54:22;30.83;;;13.23;;
20705;SDS011;10514;49.468;11.044;2022-12-18T14:57:32;24.43;;;11.53;;
20705;SDS011;10514;49.468;11.044;2022-12-18T14:59:38;23.87;;;11.97;;
20705;SDS011;10514;49.468;11.044;2022-12-18T15:04:40;29.63;;;12.67;;
20705;SDS011;10514;49.468;11.044;2022-12-18T15:07:12;24.73;;;11.57;;
20705;SDS011;10514;49.468;11.044;2022-12-18T15:09:39;28.93;;;14.60;;
20705;SDS011;10514;49.468;11.044;2022-12-18T15:12:16;24.40;;;12.20;;
20705;SDS011;10514;49.468;11.044;2022-12-18T15:14:45;23.30;;;12.00;;
20705;SDS011;10514;49.468;11.044;2022-12-18T15:17:16;25.47;;;11.60;;
20705;SDS011;10514;49.468;11.044;2022-12-18T15:19:43;23.67;;;12.87;;
20705;SDS011;10514;49.468;11.044;2022-12-18T15:22:29;25.77;;;12.23;;
20705;SDS011;10514;49.468;11.044;2022-12-18T15:24:56;21.23;;;10.43;;
20705;SDS011;10514;49.468;11.044;2022-12-18T15:27:33;26.87;;;12.67;;
20705;SDS011;10514;49.468;11.044;2022-12-18T15:32:35;35.83;;;12.37;;
20705;SDS011;10514;49.468;11.044;2022-12-18T15:35:02;27.70;;;11.93;;
20705;SDS011;10514;49.468;11.044;2022-12-18T15:37:29;27.63;;;12.57;;
20705;SDS011;10514;49.468;11.044;2022-12-18T15:39:55;23.87;;;12.17;;
20705;SDS011;10514;49.468;11.044;2022-12-18T15:42:21;24.53;;;11.37;;
20705;SDS011;10514;49.468;11.044;2022-12-18T15:45:07;23.47;;;10.27;;
20705;SDS011;10514;49.468;11.044;2022-12-18T15:47:34;28.30;;;12.63;;
20705;SDS011;10514;49.468;11.044;2022-12-18T15:50:00;28.77;;;12.33;;
20705;SDS011;10514;49.468;11.044;2022-12-18T15:52:27;17.43;;;9.80;;
20705;SDS011;10514;49.468;11.044;2022-12-18T15:54:53;24.80;;;11.80;;
20705;SDS011;10514;49.468;11.044;2022-12-18T15:57:38;18.50;;;11.03;;
20705;SDS011;10514;49.468;11.044;2022-12-18T16:00:04;21.70;;;11.63;;
20705;SDS011;10514;49.468;11.044;2022-12-18T16:02:30;22.20;;;11.80;;
20705;SDS011;10514;49.468;11.044;2022-12-18T16:04:56;21.53;;;11.73;;